sensor_id;sensor_type;location;lat;lon;timestamp;P1;durP1;ratioP1;P2;durP2;ratioP2
43150;SDS011;28755;51.478;5.702;2023-12-07T00:00:04;29.38;;;19.00;;
43150;SDS011;28755;51.478;5.702;2023-12-07T00:02:30;29.60;;;19.50;;
43150;SDS011;28755;51.478;5.702;2023-12-07T00:04:56;33.28;;;19.38;;
43150;SDS011;28755;51.478;5.702;2023-12-07T00:07:21;29.70;;;18.38;;
43150;SDS011;28755;51.478;5.702;2023-12-07T00:09:47;33.55;;;19.65;;
43150;SDS011;28755;51.478;5.702;2023-12-07T00:12:12;32.38;;;19.23;;
43150;SDS011;28755;51.478;5.702;2023-12-07T00:14:38;30.80;;;18.90;;
43150;SDS011;28755;51.478;5.702;2023-12-07T00:17:03;33.33;;;19.08;;
43150;SDS011;28755;51.478;5.702;2023-12-07T00:19:29;27.38;;;18.02;;
43150;SDS011;28755;51.478;5.702;2023-12-07T00:21:55;30.02;;;18.13;;
43150;SDS011;28755;51.478;5.702;2023-12-07T00:24:20;28.73;;;18.30;;
43150;SDS011;28755;51.478;5.702;2023-12-07T00:26:46;30.58;;;18.42;;
43150;SDS011;28755;51.478;5.702;2023-12-07T00:29:11;30.42;;;18.23;;
43150;SDS011;28755;51.478;5.702;2023-12-07T00:31:37;35.00;;;19.33;;
43150;SDS011;28755;51.478;5.702;2023-12-07T00:34:02;33.95;;;19.17;;
43150;SDS011;28755;51.478;5.702;2023-12-07T00:36:28;34.08;;;19.52;;
43150;SDS011;28755;51.478;5.702;2023-12-07T00:38:54;32.88;;;20.00;;
43150;SDS011;28755;51.478;5.702;2023-12-07T00:41:20;31.05;;;19.30;;
43150;SDS011;28755;51.478;5.702;2023-12-07T00:43:46;30.45;;;18.77;;
43150;SDS011;28755;51.478;5.702;2023-12-07T00:46:12;34.35;;;19.35;;
43150;SDS011;28755;51.478;5.702;2023-12-07T00:48:38;33.03;;;20.88;;
43150;SDS011;28755;51.478;5.702;2023-12-07T00:51:04;33.05;;;22.42;;
43150;SDS011;28755;51.478;5.702;2023-12-07T00:53:31;36.20;;;21.63;;
43150;SDS011;28755;51.478;5.702;2023-12-07T00:55:57;33.42;;;22.52;;
43150;SDS011;28755;51.478;5.702;2023-12-07T00:58:22;31.77;;;22.38;;
43150;SDS011;28755;51.478;5.702;2023-12-07T01:00:48;33.88;;;22.13;;
43150;SDS011;28755;51.478;5.702;2023-12-07T01:03:14;41.92;;;23.73;;
43150;SDS011;28755;51.478;5.702;2023-12-07T01:05:39;44.50;;;23.58;;
43150;SDS011;28755;51.478;5.702;2023-12-07T01:08:05;42.83;;;24.63;;
43150;SDS011;28755;51.478;5.702;2023-12-07T01:10:31;44.75;;;24.77;;
43150;SDS011;28755;51.478;5.702;2023-12-07T01:12:57;43.30;;;25.27;;
43150;SDS011;28755;51.478;5.702;2023-12-07T01:15:22;43.72;;;24.20;;
43150;SDS011;28755;51.478;5.702;2023-12-07T01:17:48;43.47;;;25.23;;
43150;SDS011;28755;51.478;5.702;2023-12-07T01:20:14;58.30;;;24.75;;
43150;SDS011;28755;51.478;5.702;2023-12-07T01:22:40;53.00;;;25.83;;
43150;SDS011;28755;51.478;5.702;2023-12-07T01:25:10;43.13;;;24.65;;
43150;SDS011;28755;51.478;5.702;2023-12-07T01:27:36;43.10;;;23.67;;
43150;SDS011;28755;51.478;5.702;2023-12-07T01:30:02;43.63;;;23.73;;
43150;SDS011;28755;51.478;5.702;2023-12-07T01:32:28;42.40;;;24.23;;
43150;SDS011;28755;51.478;5.702;2023-12-07T01:34:54;50.13;;;24.40;;
43150;SDS011;28755;51.478;5.702;2023-12-07T01:37:20;44.28;;;25.30;;
43150;SDS011;28755;51.478;5.702;2023-12-07T01:39:46;57.88;;;26.05;;
43150;SDS011;28755;51.478;5.702;2023-12-07T01:42:11;41.55;;;25.15;;
43150;SDS011;28755;51.478;5.702;2023-12-07T01:44:37;45.55;;;24.17;;
43150;SDS011;28755;51.478;5.702;2023-12-07T01:47:04;43.65;;;25.55;;
43150;SDS011;28755;51.478;5.702;2023-12-07T01:49:31;41.70;;;24.70;;
43150;SDS011;28755;51.478;5.702;2023-12-07T01:51:57;46.38;;;24.77;;
43150;SDS011;28755;51.478;5.702;2023-12-07T01:54:23;44.05;;;24.92;;
43150;SDS011;28755;51.478;5.702;2023-12-07T01:56:50;50.10;;;25.85;;
43150;SDS011;28755;51.478;5.702;2023-12-07T01:59:17;45.38;;;25.88;;
43150;SDS011;28755;51.478;5.702;2023-12-07T02:01:43;52.72;;;24.42;;
43150;SDS011;28755;51.478;5.702;2023-12-07T02:04:09;48.72;;;23.88;;
43150;SDS011;28755;51.478;5.702;2023-12-07T02:06:35;46.03;;;24.45;;
43150;SDS011;28755;51.478;5.702;2023-12-07T02:09:01;47.45;;;24.77;;
43150;SDS011;28755;51.478;5.702;2023-12-07T02:11:27;46.72;;;25.30;;
43150;SDS011;28755;51.478;5.702;2023-12-07T02:13:53;54.45;;;24.67;;
43150;SDS011;28755;51.478;5.702;2023-12-07T02:16:39;46.83;;;24.70;;
43150;SDS011;28755;51.478;5.702;2023-12-07T02:22:01;47.33;;;24.25;;
43150;SDS011;28755;51.478;5.702;2023-12-07T02:24:33;50.55;;;24.70;;
43150;SDS011;28755;51.478;5.702;2023-12-07T02:27:02;58.22;;;25.00;;
43150;SDS011;28755;51.478;5.702;2023-12-07T02:29:28;95.43;;;26.95;;
43150;SDS011;28755;51.478;5.702;2023-12-07T02:31:53;74.28;;;25.80;;
43150;SDS011;28755;51.478;5.702;2023-12-07T02:34:19;74.07;;;27.73;;
43150;SDS011;28755;51.478;5.702;2023-12-07T02:36:45;48.30;;;25.58;;
43150;SDS011;28755;51.478;5.702;2023-12-07T02:39:13;69.90;;;27.30;;
43150;SDS011;28755;51.478;5.702;2023-12-07T02:41:40;77.25;;;26.25;;
43150;SDS011;28755;51.478;5.702;2023-12-07T02:44:06;67.82;;;25.52;;
43150;SDS011;28755;51.478;5.702;2023-12-07T02:46:32;124.63;;;25.98;;
43150;SDS011;28755;51.478;5.702;2023-12-07T02:48:58;129.30;;;24.30;;
43150;SDS011;28755;51.478;5.702;2023-12-07T02:51:24;99.20;;;24.42;;
43150;SDS011;28755;51.478;5.702;2023-12-07T02:53:49;93.75;;;24.60;;
43150;SDS011;28755;51.478;5.702;2023-12-07T02:56:15;69.72;;;23.48;;
43150;SDS011;28755;51.478;5.702;2023-12-07T02:58:41;134.35;;;24.33;;
43150;SDS011;28755;51.478;5.702;2023-12-07T03:01:06;131.88;;;24.75;;
43150;SDS011;28755;51.478;5.702;2023-12-07T03:03:33;158.65;;;27.85;;
43150;SDS011;28755;51.478;5.702;2023-12-07T03:05:58;139.02;;;25.42;;
43150;SDS011;28755;51.478;5.702;2023-12-07T03:08:24;136.32;;;24.85;;
43150;SDS011;28755;51.478;5.702;2023-12-07T03:10:49;129.32;;;25.17;;
43150;SDS011;28755;51.478;5.702;2023-12-07T03:13:15;131.65;;;26.33;;
43150;SDS011;28755;51.478;5.702;2023-12-07T03:15:40;124.28;;;24.50;;
43150;SDS011;28755;51.478;5.702;2023-12-07T03:18:06;123.95;;;26.70;;
43150;SDS011;28755;51.478;5.702;2023-12-07T03:20:32;163.55;;;26.10;;
43150;SDS011;28755;51.478;5.702;2023-12-07T03:22:59;93.40;;;25.33;;
43150;SDS011;28755;51.478;5.702;2023-12-07T03:25:24;166.95;;;27.55;;
43150;SDS011;28755;51.478;5.702;2023-12-07T03:27:50;151.77;;;28.52;;
43150;SDS011;28755;51.478;5.702;2023-12-07T03:30:16;129.27;;;27.08;;
43150;SDS011;28755;51.478;5.702;2023-12-07T03:32:41;153.88;;;26.85;;
43150;SDS011;28755;51.478;5.702;2023-12-07T03:35:07;90.22;;;26.63;;
43150;SDS011;28755;51.478;5.702;2023-12-07T03:37:33;133.57;;;27.48;;
43150;SDS011;28755;51.478;5.702;2023-12-07T03:39:58;132.73;;;28.25;;
43150;SDS011;28755;51.478;5.702;2023-12-07T03:42:24;116.25;;;29.40;;
43150;SDS011;28755;51.478;5.702;2023-12-07T03:44:49;106.22;;;27.42;;
43150;SDS011;28755;51.478;5.702;2023-12-07T03:47:15;131.35;;;28.80;;
43150;SDS011;28755;51.478;5.702;2023-12-07T03:49:40;98.65;;;29.50;;
43150;SDS011;28755;51.478;5.702;2023-12-07T03:52:07;142.18;;;28.95;;
43150;SDS011;28755;51.478;5.702;2023-12-07T03:54:32;160.50;;;27.33;;
43150;SDS011;28755;51.478;5.702;2023-12-07T03:56:58;188.48;;;26.95;;
43150;SDS011;28755;51.478;5.702;2023-12-07T03:59:23;107.55;;;25.02;;
43150;SDS011;28755;51.478;5.702;2023-12-07T04:01:49;149.85;;;27.63;;
43150;SDS011;28755;51.478;5.702;2023-12-07T04:04:15;131.73;;;27.55;;
43150;SDS011;28755;51.478;5.702;2023-12-07T04:06:40;162.20;;;25.88;;
43150;SDS011;28755;51.478;5.702;2023-12-07T04:09:06;122.22;;;27.02;;
43150;SDS011;28755;51.478;5.702;2023-12-07T04:11:32;118.43;;;26.33;;
43150;SDS011;28755;51.478;5.702;2023-12-07T04:13:58;179.95;;;26.88;;
43150;SDS011;28755;51.478;5.702;2023-12-07T04:16:24;154.45;;;28.15;;
43150;SDS011;28755;51.478;5.702;2023-12-07T04:18:50;182.82;;;27.95;;
43150;SDS011;28755;51.478;5.702;2023-12-07T04:21:16;157.25;;;28.90;;
43150;SDS011;28755;51.478;5.702;2023-12-07T04:23:42;171.85;;;27.67;;
43150;SDS011;28755;51.478;5.702;2023-12-07T04:26:07;118.10;;;26.95;;
43150;SDS011;28755;51.478;5.702;2023-12-07T04:28:33;87.97;;;27.30;;
43150;SDS011;28755;51.478;5.702;2023-12-07T04:30:58;96.20;;;26.25;;
43150;SDS011;28755;51.478;5.702;2023-12-07T04:33:24;151.35;;;27.35;;
43150;SDS011;28755;51.478;5.702;2023-12-07T04:35:50;106.75;;;25.02;;
43150;SDS011;28755;51.478;5.702;2023-12-07T04:38:15;75.13;;;24.45;;
43150;SDS011;28755;51.478;5.702;2023-12-07T04:40:41;85.13;;;25.73;;
43150;SDS011;28755;51.478;5.702;2023-12-07T04:43:07;111.57;;;24.48;;
43150;SDS011;28755;51.478;5.702;2023-12-07T04:45:32;139.55;;;22.42;;
43150;SDS011;28755;51.478;5.702;2023-12-07T04:47:58;131.95;;;23.58;;
43150;SDS011;28755;51.478;5.702;2023-12-07T04:50:25;49.33;;;20.80;;
43150;SDS011;28755;51.478;5.702;2023-12-07T04:52:51;72.43;;;20.42;;
43150;SDS011;28755;51.478;5.702;2023-12-07T04:55:16;88.93;;;21.08;;
43150;SDS011;28755;51.478;5.702;2023-12-07T04:57:42;123.53;;;21.23;;
43150;SDS011;28755;51.478;5.702;2023-12-07T05:00:08;71.07;;;20.10;;
43150;SDS011;28755;51.478;5.702;2023-12-07T05:02:38;133.13;;;20.10;;
43150;SDS011;28755;51.478;5.702;2023-12-07T05:05:04;134.00;;;20.88;;
43150;SDS011;28755;51.478;5.702;2023-12-07T05:07:30;79.80;;;18.88;;
43150;SDS011;28755;51.478;5.702;2023-12-07T05:09:55;107.40;;;19.35;;
43150;SDS011;28755;51.478;5.702;2023-12-07T05:12:21;95.15;;;21.40;;
43150;SDS011;28755;51.478;5.702;2023-12-07T05:14:47;136.27;;;18.48;;
43150;SDS011;28755;51.478;5.702;2023-12-07T05:17:12;109.13;;;17.75;;
43150;SDS011;28755;51.478;5.702;2023-12-07T05:19:38;82.47;;;19.13;;
43150;SDS011;28755;51.478;5.702;2023-12-07T05:22:04;137.75;;;18.55;;
43150;SDS011;28755;51.478;5.702;2023-12-07T05:24:30;168.18;;;18.33;;
43150;SDS011;28755;51.478;5.702;2023-12-07T05:26:57;125.07;;;18.55;;
43150;SDS011;28755;51.478;5.702;2023-12-07T05:29:23;110.20;;;18.80;;
43150;SDS011;28755;51.478;5.702;2023-12-07T05:31:48;165.35;;;19.33;;
43150;SDS011;28755;51.478;5.702;2023-12-07T05:34:15;90.90;;;18.20;;
43150;SDS011;28755;51.478;5.702;2023-12-07T05:36:41;83.53;;;18.83;;
43150;SDS011;28755;51.478;5.702;2023-12-07T05:39:07;99.55;;;18.35;;
43150;SDS011;28755;51.478;5.702;2023-12-07T05:41:33;117.15;;;19.77;;
43150;SDS011;28755;51.478;5.702;2023-12-07T05:43:58;100.30;;;18.30;;
43150;SDS011;28755;51.478;5.702;2023-12-07T05:46:24;78.53;;;18.80;;
43150;SDS011;28755;51.478;5.702;2023-12-07T05:48:49;97.38;;;19.20;;
43150;SDS011;28755;51.478;5.702;2023-12-07T05:51:16;77.78;;;18.95;;
43150;SDS011;28755;51.478;5.702;2023-12-07T05:53:42;104.45;;;18.92;;
43150;SDS011;28755;51.478;5.702;2023-12-07T05:56:08;123.90;;;19.73;;
43150;SDS011;28755;51.478;5.702;2023-12-07T05:58:35;109.60;;;18.25;;
43150;SDS011;28755;51.478;5.702;2023-12-07T06:01:00;120.85;;;18.35;;
43150;SDS011;28755;51.478;5.702;2023-12-07T06:03:27;138.45;;;17.83;;
43150;SDS011;28755;51.478;5.702;2023-12-07T06:05:53;145.10;;;18.67;;
43150;SDS011;28755;51.478;5.702;2023-12-07T06:08:19;103.80;;;17.42;;
43150;SDS011;28755;51.478;5.702;2023-12-07T06:10:45;177.35;;;17.60;;
43150;SDS011;28755;51.478;5.702;2023-12-07T06:13:10;136.25;;;17.63;;
43150;SDS011;28755;51.478;5.702;2023-12-07T06:15:37;115.53;;;16.55;;
43150;SDS011;28755;51.478;5.702;2023-12-07T06:18:02;109.68;;;17.65;;
43150;SDS011;28755;51.478;5.702;2023-12-07T06:20:28;120.10;;;18.52;;
43150;SDS011;28755;51.478;5.702;2023-12-07T06:22:54;160.50;;;17.95;;
43150;SDS011;28755;51.478;5.702;2023-12-07T06:25:20;176.60;;;20.65;;
43150;SDS011;28755;51.478;5.702;2023-12-07T06:27:45;113.05;;;19.88;;
43150;SDS011;28755;51.478;5.702;2023-12-07T06:30:11;164.48;;;20.80;;
43150;SDS011;28755;51.478;5.702;2023-12-07T06:32:37;138.25;;;19.73;;
43150;SDS011;28755;51.478;5.702;2023-12-07T06:35:03;128.30;;;21.55;;
43150;SDS011;28755;51.478;5.702;2023-12-07T06:37:32;81.60;;;21.20;;
43150;SDS011;28755;51.478;5.702;2023-12-07T06:39:58;136.68;;;20.73;;
43150;SDS011;28755;51.478;5.702;2023-12-07T06:42:25;173.43;;;24.00;;
43150;SDS011;28755;51.478;5.702;2023-12-07T06:44:51;174.90;;;21.48;;
43150;SDS011;28755;51.478;5.702;2023-12-07T06:47:16;102.22;;;18.95;;
43150;SDS011;28755;51.478;5.702;2023-12-07T06:49:43;120.10;;;17.45;;
43150;SDS011;28755;51.478;5.702;2023-12-07T06:52:09;141.10;;;19.17;;
43150;SDS011;28755;51.478;5.702;2023-12-07T06:54:36;160.75;;;20.48;;
43150;SDS011;28755;51.478;5.702;2023-12-07T06:57:01;148.70;;;19.08;;
43150;SDS011;28755;51.478;5.702;2023-12-07T06:59:27;65.22;;;19.02;;
43150;SDS011;28755;51.478;5.702;2023-12-07T07:01:53;152.40;;;19.90;;
43150;SDS011;28755;51.478;5.702;2023-12-07T07:04:19;183.43;;;19.70;;
43150;SDS011;28755;51.478;5.702;2023-12-07T07:06:44;108.63;;;19.13;;
43150;SDS011;28755;51.478;5.702;2023-12-07T07:09:10;156.70;;;20.05;;
43150;SDS011;28755;51.478;5.702;2023-12-07T07:11:37;94.35;;;20.23;;
43150;SDS011;28755;51.478;5.702;2023-12-07T07:14:03;118.18;;;20.65;;
43150;SDS011;28755;51.478;5.702;2023-12-07T07:16:29;84.18;;;20.67;;
43150;SDS011;28755;51.478;5.702;2023-12-07T07:18:55;145.48;;;19.33;;
43150;SDS011;28755;51.478;5.702;2023-12-07T07:21:21;82.65;;;20.23;;
43150;SDS011;28755;51.478;5.702;2023-12-07T07:23:46;192.18;;;22.20;;
43150;SDS011;28755;51.478;5.702;2023-12-07T07:26:12;102.00;;;21.20;;
43150;SDS011;28755;51.478;5.702;2023-12-07T07:28:41;151.00;;;22.33;;
43150;SDS011;28755;51.478;5.702;2023-12-07T07:31:07;86.38;;;21.70;;
43150;SDS011;28755;51.478;5.702;2023-12-07T07:33:33;135.52;;;22.55;;
43150;SDS011;28755;51.478;5.702;2023-12-07T07:35:59;111.90;;;21.42;;
43150;SDS011;28755;51.478;5.702;2023-12-07T07:38:24;100.70;;;21.70;;
43150;SDS011;28755;51.478;5.702;2023-12-07T07:40:50;146.30;;;22.42;;
43150;SDS011;28755;51.478;5.702;2023-12-07T07:43:15;212.63;;;22.00;;
43150;SDS011;28755;51.478;5.702;2023-12-07T07:45:41;133.50;;;23.70;;
43150;SDS011;28755;51.478;5.702;2023-12-07T07:48:07;139.35;;;22.98;;
43150;SDS011;28755;51.478;5.702;2023-12-07T07:50:32;86.93;;;22.52;;
43150;SDS011;28755;51.478;5.702;2023-12-07T07:53:00;151.95;;;24.77;;
43150;SDS011;28755;51.478;5.702;2023-12-07T07:55:26;111.35;;;25.27;;
43150;SDS011;28755;51.478;5.702;2023-12-07T07:57:52;96.47;;;24.33;;
43150;SDS011;28755;51.478;5.702;2023-12-07T08:00:18;122.55;;;24.45;;
43150;SDS011;28755;51.478;5.702;2023-12-07T08:02:44;76.35;;;22.52;;
43150;SDS011;28755;51.478;5.702;2023-12-07T08:05:10;108.32;;;23.02;;
43150;SDS011;28755;51.478;5.702;2023-12-07T08:07:36;72.03;;;22.88;;
43150;SDS011;28755;51.478;5.702;2023-12-07T08:10:02;90.53;;;23.90;;
43150;SDS011;28755;51.478;5.702;2023-12-07T08:12:28;85.03;;;24.05;;
43150;SDS011;28755;51.478;5.702;2023-12-07T08:14:54;74.80;;;23.13;;
43150;SDS011;28755;51.478;5.702;2023-12-07T08:17:19;90.75;;;23.85;;
43150;SDS011;28755;51.478;5.702;2023-12-07T08:19:46;80.97;;;24.85;;
43150;SDS011;28755;51.478;5.702;2023-12-07T08:22:12;89.35;;;23.90;;
43150;SDS011;28755;51.478;5.702;2023-12-07T08:24:41;79.78;;;23.98;;
43150;SDS011;28755;51.478;5.702;2023-12-07T08:27:06;83.32;;;26.10;;
43150;SDS011;28755;51.478;5.702;2023-12-07T08:29:32;88.43;;;25.10;;
43150;SDS011;28755;51.478;5.702;2023-12-07T08:31:58;85.30;;;25.60;;
43150;SDS011;28755;51.478;5.702;2023-12-07T08:34:24;80.22;;;26.00;;
43150;SDS011;28755;51.478;5.702;2023-12-07T08:36:50;79.97;;;26.05;;
43150;SDS011;28755;51.478;5.702;2023-12-07T08:39:16;85.65;;;27.17;;
43150;SDS011;28755;51.478;5.702;2023-12-07T08:41:41;75.32;;;25.25;;
43150;SDS011;28755;51.478;5.702;2023-12-07T08:44:07;75.05;;;24.83;;
43150;SDS011;28755;51.478;5.702;2023-12-07T08:46:33;80.28;;;26.88;;
43150;SDS011;28755;51.478;5.702;2023-12-07T08:48:59;74.40;;;24.17;;
43150;SDS011;28755;51.478;5.702;2023-12-07T08:51:24;74.22;;;25.23;;
43150;SDS011;28755;51.478;5.702;2023-12-07T08:53:50;74.45;;;25.35;;
43150;SDS011;28755;51.478;5.702;2023-12-07T08:56:16;80.13;;;26.00;;
43150;SDS011;28755;51.478;5.702;2023-12-07T08:58:42;71.85;;;25.27;;
43150;SDS011;28755;51.478;5.702;2023-12-07T09:01:09;75.93;;;26.85;;
43150;SDS011;28755;51.478;5.702;2023-12-07T09:03:36;74.45;;;26.33;;
43150;SDS011;28755;51.478;5.702;2023-12-07T09:06:02;85.88;;;26.25;;
43150;SDS011;28755;51.478;5.702;2023-12-07T09:08:28;75.78;;;27.55;;
43150;SDS011;28755;51.478;5.702;2023-12-07T09:10:53;76.22;;;26.00;;
43150;SDS011;28755;51.478;5.702;2023-12-07T09:13:19;69.68;;;24.58;;
43150;SDS011;28755;51.478;5.702;2023-12-07T09:15:45;66.88;;;24.48;;
43150;SDS011;28755;51.478;5.702;2023-12-07T09:18:10;63.85;;;25.05;;
43150;SDS011;28755;51.478;5.702;2023-12-07T09:20:36;70.82;;;26.40;;
43150;SDS011;28755;51.478;5.702;2023-12-07T09:23:02;60.17;;;23.83;;
43150;SDS011;28755;51.478;5.702;2023-12-07T09:25:28;54.05;;;23.42;;
43150;SDS011;28755;51.478;5.702;2023-12-07T09:27:55;58.38;;;23.63;;
43150;SDS011;28755;51.478;5.702;2023-12-07T09:30:21;60.80;;;23.77;;
43150;SDS011;28755;51.478;5.702;2023-12-07T09:32:47;51.25;;;21.85;;
43150;SDS011;28755;51.478;5.702;2023-12-07T09:35:12;58.95;;;23.67;;
43150;SDS011;28755;51.478;5.702;2023-12-07T09:37:44;58.05;;;25.10;;
43150;SDS011;28755;51.478;5.702;2023-12-07T09:40:14;57.80;;;23.52;;
43150;SDS011;28755;51.478;5.702;2023-12-07T09:42:42;61.85;;;25.75;;
43150;SDS011;28755;51.478;5.702;2023-12-07T09:45:09;58.85;;;26.13;;
43150;SDS011;28755;51.478;5.702;2023-12-07T09:47:35;56.40;;;25.85;;
43150;SDS011;28755;51.478;5.702;2023-12-07T09:50:02;58.17;;;27.17;;
43150;SDS011;28755;51.478;5.702;2023-12-07T09:52:33;56.55;;;27.98;;
43150;SDS011;28755;51.478;5.702;2023-12-07T09:54:59;46.50;;;25.05;;
43150;SDS011;28755;51.478;5.702;2023-12-07T09:57:27;35.63;;;20.75;;
43150;SDS011;28755;51.478;5.702;2023-12-07T09:59:53;29.55;;;19.45;;
43150;SDS011;28755;51.478;5.702;2023-12-07T10:02:21;23.23;;;16.30;;
43150;SDS011;28755;51.478;5.702;2023-12-07T10:04:47;21.73;;;15.38;;
43150;SDS011;28755;51.478;5.702;2023-12-07T10:07:13;20.67;;;13.90;;
43150;SDS011;28755;51.478;5.702;2023-12-07T10:09:39;19.60;;;14.05;;
43150;SDS011;28755;51.478;5.702;2023-12-07T10:12:06;19.95;;;13.80;;
43150;SDS011;28755;51.478;5.702;2023-12-07T10:14:32;22.10;;;13.05;;
43150;SDS011;28755;51.478;5.702;2023-12-07T10:16:59;20.60;;;13.25;;
43150;SDS011;28755;51.478;5.702;2023-12-07T10:19:25;20.48;;;13.77;;
43150;SDS011;28755;51.478;5.702;2023-12-07T10:21:52;19.55;;;14.13;;
43150;SDS011;28755;51.478;5.702;2023-12-07T10:24:22;20.17;;;13.77;;
43150;SDS011;28755;51.478;5.702;2023-12-07T10:26:51;22.83;;;14.68;;
43150;SDS011;28755;51.478;5.702;2023-12-07T10:29:17;21.77;;;13.85;;
43150;SDS011;28755;51.478;5.702;2023-12-07T10:31:44;25.35;;;14.73;;
43150;SDS011;28755;51.478;5.702;2023-12-07T10:34:11;22.63;;;14.85;;
43150;SDS011;28755;51.478;5.702;2023-12-07T10:36:37;24.13;;;15.82;;
43150;SDS011;28755;51.478;5.702;2023-12-07T10:39:03;24.50;;;16.67;;
43150;SDS011;28755;51.478;5.702;2023-12-07T10:41:31;26.00;;;17.25;;
43150;SDS011;28755;51.478;5.702;2023-12-07T10:43:59;25.38;;;17.38;;
43150;SDS011;28755;51.478;5.702;2023-12-07T10:46:26;26.98;;;18.48;;
43150;SDS011;28755;51.478;5.702;2023-12-07T10:48:58;27.52;;;19.23;;
43150;SDS011;28755;51.478;5.702;2023-12-07T10:53:55;26.30;;;17.08;;
43150;SDS011;28755;51.478;5.702;2023-12-07T10:56:45;25.25;;;15.45;;
43150;SDS011;28755;51.478;5.702;2023-12-07T10:59:10;24.33;;;16.42;;
43150;SDS011;28755;51.478;5.702;2023-12-07T11:01:41;26.27;;;16.35;;
43150;SDS011;28755;51.478;5.702;2023-12-07T11:04:11;21.38;;;15.57;;
43150;SDS011;28755;51.478;5.702;2023-12-07T11:06:38;19.40;;;14.27;;
43150;SDS011;28755;51.478;5.702;2023-12-07T11:09:09;19.70;;;14.13;;
43150;SDS011;28755;51.478;5.702;2023-12-07T11:11:43;21.02;;;13.45;;
43150;SDS011;28755;51.478;5.702;2023-12-07T11:14:13;15.40;;;11.93;;
43150;SDS011;28755;51.478;5.702;2023-12-07T11:16:47;17.00;;;12.27;;
43150;SDS011;28755;51.478;5.702;2023-12-07T11:22:07;15.25;;;12.07;;
43150;SDS011;28755;51.478;5.702;2023-12-07T11:24:35;17.55;;;12.18;;
43150;SDS011;28755;51.478;5.702;2023-12-07T11:27:01;16.35;;;12.60;;
43150;SDS011;28755;51.478;5.702;2023-12-07T11:29:30;18.02;;;11.48;;
43150;SDS011;28755;51.478;5.702;2023-12-07T11:31:57;17.50;;;11.75;;
43150;SDS011;28755;51.478;5.702;2023-12-07T11:34:39;16.60;;;12.13;;
43150;SDS011;28755;51.478;5.702;2023-12-07T11:37:06;15.27;;;11.68;;
43150;SDS011;28755;51.478;5.702;2023-12-07T11:39:37;17.42;;;13.00;;
43150;SDS011;28755;51.478;5.702;2023-12-07T11:42:37;17.05;;;13.40;;
43150;SDS011;28755;51.478;5.702;2023-12-07T11:44:56;20.67;;;14.20;;
43150;SDS011;28755;51.478;5.702;2023-12-07T11:47:22;20.52;;;13.52;;
43150;SDS011;28755;51.478;5.702;2023-12-07T11:49:47;23.55;;;14.65;;
43150;SDS011;28755;51.478;5.702;2023-12-07T11:52:17;18.55;;;13.13;;
43150;SDS011;28755;51.478;5.702;2023-12-07T11:54:44;20.65;;;13.95;;
43150;SDS011;28755;51.478;5.702;2023-12-07T11:57:12;21.67;;;16.80;;
43150;SDS011;28755;51.478;5.702;2023-12-07T11:59:39;23.25;;;17.05;;
43150;SDS011;28755;51.478;5.702;2023-12-07T12:02:04;26.42;;;18.30;;
43150;SDS011;28755;51.478;5.702;2023-12-07T12:04:30;27.52;;;19.35;;
43150;SDS011;28755;51.478;5.702;2023-12-07T12:06:55;28.85;;;20.75;;
43150;SDS011;28755;51.478;5.702;2023-12-07T12:09:23;26.35;;;18.27;;
43150;SDS011;28755;51.478;5.702;2023-12-07T12:11:49;24.98;;;17.45;;
43150;SDS011;28755;51.478;5.702;2023-12-07T12:14:16;24.85;;;16.77;;
43150;SDS011;28755;51.478;5.702;2023-12-07T12:16:42;31.63;;;19.98;;
43150;SDS011;28755;51.478;5.702;2023-12-07T12:19:09;27.98;;;20.00;;
43150;SDS011;28755;51.478;5.702;2023-12-07T12:21:37;27.40;;;19.80;;
43150;SDS011;28755;51.478;5.702;2023-12-07T12:24:06;29.27;;;18.77;;
43150;SDS011;28755;51.478;5.702;2023-12-07T12:26:34;22.30;;;17.00;;
43150;SDS011;28755;51.478;5.702;2023-12-07T12:29:01;26.02;;;16.77;;
43150;SDS011;28755;51.478;5.702;2023-12-07T12:31:27;20.85;;;15.73;;
43150;SDS011;28755;51.478;5.702;2023-12-07T12:33:53;25.65;;;16.25;;
43150;SDS011;28755;51.478;5.702;2023-12-07T12:36:19;21.52;;;16.25;;
43150;SDS011;28755;51.478;5.702;2023-12-07T12:38:51;22.37;;;15.67;;
43150;SDS011;28755;51.478;5.702;2023-12-07T12:41:20;21.42;;;15.48;;
43150;SDS011;28755;51.478;5.702;2023-12-07T12:43:49;20.75;;;15.95;;
43150;SDS011;28755;51.478;5.702;2023-12-07T12:46:18;22.10;;;15.00;;
43150;SDS011;28755;51.478;5.702;2023-12-07T12:48:53;22.25;;;15.77;;
43150;SDS011;28755;51.478;5.702;2023-12-07T12:51:20;22.58;;;16.00;;
43150;SDS011;28755;51.478;5.702;2023-12-07T12:53:48;24.15;;;16.15;;
43150;SDS011;28755;51.478;5.702;2023-12-07T12:56:14;21.75;;;14.88;;
43150;SDS011;28755;51.478;5.702;2023-12-07T12:58:40;23.48;;;15.80;;
43150;SDS011;28755;51.478;5.702;2023-12-07T13:01:06;22.92;;;15.98;;
43150;SDS011;28755;51.478;5.702;2023-12-07T13:03:32;24.45;;;16.98;;
43150;SDS011;28755;51.478;5.702;2023-12-07T13:05:58;21.52;;;15.85;;
43150;SDS011;28755;51.478;5.702;2023-12-07T13:08:24;25.30;;;17.23;;
43150;SDS011;28755;51.478;5.702;2023-12-07T13:10:49;23.80;;;15.38;;
43150;SDS011;28755;51.478;5.702;2023-12-07T13:13:15;28.27;;;16.25;;
43150;SDS011;28755;51.478;5.702;2023-12-07T13:15:41;23.95;;;15.35;;
43150;SDS011;28755;51.478;5.702;2023-12-07T13:18:07;23.27;;;15.82;;
43150;SDS011;28755;51.478;5.702;2023-12-07T13:20:33;21.38;;;14.63;;
43150;SDS011;28755;51.478;5.702;2023-12-07T13:23:00;22.60;;;14.75;;
43150;SDS011;28755;51.478;5.702;2023-12-07T13:25:26;22.23;;;15.65;;
43150;SDS011;28755;51.478;5.702;2023-12-07T13:27:51;25.13;;;14.75;;
43150;SDS011;28755;51.478;5.702;2023-12-07T13:30:17;22.88;;;15.25;;
43150;SDS011;28755;51.478;5.702;2023-12-07T13:32:43;23.15;;;15.68;;
43150;SDS011;28755;51.478;5.702;2023-12-07T13:35:09;21.83;;;14.90;;
43150;SDS011;28755;51.478;5.702;2023-12-07T13:37:35;27.80;;;15.73;;
43150;SDS011;28755;51.478;5.702;2023-12-07T13:40:01;23.60;;;14.90;;
43150;SDS011;28755;51.478;5.702;2023-12-07T13:42:30;21.90;;;15.05;;
43150;SDS011;28755;51.478;5.702;2023-12-07T13:44:59;25.30;;;15.40;;
43150;SDS011;28755;51.478;5.702;2023-12-07T13:47:25;25.98;;;16.42;;
43150;SDS011;28755;51.478;5.702;2023-12-07T13:49:54;23.50;;;15.35;;
43150;SDS011;28755;51.478;5.702;2023-12-07T13:52:21;25.40;;;16.02;;
43150;SDS011;28755;51.478;5.702;2023-12-07T13:54:47;22.08;;;15.45;;
43150;SDS011;28755;51.478;5.702;2023-12-07T13:57:13;30.05;;;16.33;;
43150;SDS011;28755;51.478;5.702;2023-12-07T13:59:39;22.70;;;16.02;;
43150;SDS011;28755;51.478;5.702;2023-12-07T14:02:05;23.90;;;15.25;;
43150;SDS011;28755;51.478;5.702;2023-12-07T14:04:31;25.40;;;15.93;;
43150;SDS011;28755;51.478;5.702;2023-12-07T14:07:14;25.50;;;16.63;;
43150;SDS011;28755;51.478;5.702;2023-12-07T14:09:42;22.13;;;15.57;;
43150;SDS011;28755;51.478;5.702;2023-12-07T14:12:09;25.05;;;15.27;;
43150;SDS011;28755;51.478;5.702;2023-12-07T14:14:39;28.27;;;15.35;;
43150;SDS011;28755;51.478;5.702;2023-12-07T14:17:05;21.15;;;13.98;;
43150;SDS011;28755;51.478;5.702;2023-12-07T14:19:31;22.13;;;13.35;;
43150;SDS011;28755;51.478;5.702;2023-12-07T14:21:58;21.65;;;14.27;;